Time;durP1;ratioP1;P1;durP2;ratioP2;P2;SDS_P1;SDS_P2;PMS_P1;PMS_P2;Temp;Humidity;BMP_temperature;BMP_pressure;BME280_temperature;BME280_humidity;BME280_pressure;Samples;Min_cycle;Max_cycle;Signal;HPM_P1;HPM_P2
2023/07/22 00:02:22;;;;;;;2.27;1.30;;;21.30;99.90;;;21.57;50.37;101049.28;4895281;28;97236;-44
2023/07/22 00:04:49;;;;;;;2.53;1.70;;;21.30;99.90;;;21.57;50.24;101043.91;4903961;28;97438;-47
2023/07/22 00:07:15;;;;;;;2.13;1.60;;;21.30;99.90;;;21.56;50.25;101044.88;4899076;28;97464;-46
2023/07/22 00:09:42;;;;;;;2.03;1.50;;;21.30;99.90;;;21.53;50.30;101045.09;4904963;28;97280;-43
2023/07/22 00:12:09;;;;;;;1.73;1.37;;;21.20;99.90;;;21.52;50.58;101040.69;4905924;28;99456;-43
2023/07/22 00:14:39;;;;;;;3.20;1.80;;;21.20;99.90;;;21.52;50.04;101048.75;4904339;28;97178;-43
2023/07/22 00:17:05;;;;;;;1.47;1.37;;;21.20;99.90;;;21.49;50.25;101048.13;4908425;28;97128;-44
2023/07/22 00:19:31;;;;;;;2.97;2.07;;;21.10;99.90;;;21.43;50.56;101046.78;4901697;28;121659;-43
2023/07/22 00:21:57;;;;;;;4.60;2.70;;;21.00;99.90;;;21.36;50.50;101048.19;4903936;28;96880;-47
2023/07/22 00:24:23;;;;;;;2.47;1.60;;;20.90;99.90;;;21.37;51.02;101044.53;4895694;28;97626;-48
2023/07/22 00:26:49;;;;;;;2.40;1.60;;;20.90;99.90;;;21.41;51.14;101043.34;4899581;28;97623;-43
2023/07/22 00:29:16;;;;;;;2.87;1.97;;;21.00;99.90;;;21.47;50.89;101040.19;4903946;28;97925;-44
2023/07/22 00:31:42;;;;;;;1.87;1.10;;;21.20;99.90;;;21.53;50.65;101042.41;4893784;28;97797;-43
2023/07/22 00:34:09;;;;;;;4.17;2.20;;;21.30;99.90;;;21.53;48.51;101042.41;4902090;28;96805;-45
2023/07/22 00:36:34;;;;;;;1.83;1.37;;;21.30;99.90;;;21.41;50.44;101042.47;4906643;28;98307;-43
2023/07/22 00:39:01;;;;;;;2.87;1.70;;;21.00;99.90;;;21.39;50.99;101037.22;4888970;28;98526;-45
2023/07/22 00:41:28;;;;;;;2.27;1.47;;;21.00;99.90;;;21.42;50.97;101042.38;4888562;28;97010;-48
2023/07/22 00:43:54;;;;;;;2.23;1.50;;;21.10;99.90;;;21.45;50.84;101043.97;4891439;28;97395;-47
2023/07/22 00:46:20;;;;;;;2.30;1.80;;;21.10;99.90;;;21.45;50.89;101038.59;4899576;28;98060;-44
2023/07/22 00:48:48;;;;;;;2.37;1.37;;;21.10;99.90;;;21.47;50.79;101033.97;4881507;28;99900;-44
2023/07/22 00:51:14;;;;;;;2.57;1.83;;;21.20;99.90;;;21.51;50.70;101041.66;4896105;28;97958;-47
2023/07/22 00:53:40;;;;;;;2.00;1.47;;;21.20;99.90;;;21.53;50.41;101039.72;4891115;28;97375;-44
2023/07/22 00:56:06;;;;;;;1.30;1.10;;;21.30;99.90;;;21.55;50.56;101032.41;4890552;28;97637;-44
2023/07/22 00:58:34;;;;;;;2.63;1.70;;;21.30;99.90;;;21.56;50.49;101034.16;4882635;28;98146;-45
2023/07/22 01:01:00;;;;;;;2.30;1.50;;;21.30;99.90;;;21.53;49.99;101031.66;4884679;28;97082;-45
2023/07/22 01:03:25;;;;;;;3.50;1.77;;;21.30;99.90;;;21.49;50.68;101038.25;4896440;28;97573;-44
2023/07/22 01:05:54;;;;;;;2.07;1.67;;;21.20;99.90;;;21.50;50.76;101039.09;4896750;28;97038;-45
2023/07/22 01:08:21;;;;;;;2.33;1.67;;;21.20;99.90;;;21.52;50.81;101032.63;4890564;28;97563;-45
2023/07/22 01:10:48;;;;;;;2.10;1.50;;;21.20;99.90;;;21.55;50.60;101039.59;4895264;28;110790;-43
2023/07/22 01:13:13;;;;;;;3.50;2.07;;;21.30;99.90;;;21.58;50.51;101036.72;4889803;28;97870;-46
2023/07/22 01:15:40;;;;;;;1.77;1.50;;;21.30;99.90;;;21.61;50.42;101048.06;4893291;28;112126;-44
2023/07/22 01:18:06;;;;;;;1.23;1.13;;;21.40;99.90;;;21.65;50.51;101028.06;4893454;28;101881;-44
2023/07/22 01:20:33;;;;;;;2.87;1.80;;;21.50;99.90;;;21.69;50.25;101029.53;4895167;28;97350;-45
2023/07/22 01:22:59;;;;;;;2.40;1.27;;;21.50;99.90;;;21.73;50.17;101023.94;4918493;28;97173;-45
2023/07/22 01:25:25;;;;;;;3.47;2.07;;;21.60;99.90;;;21.77;50.16;101028.09;4907243;28;97496;-43
2023/07/22 01:27:51;;;;;;;1.97;1.43;;;21.60;99.90;;;21.80;50.17;101025.19;4904945;28;98786;-45
2023/07/22 01:30:19;;;;;;;3.23;1.90;;;21.70;99.90;;;21.81;49.98;101027.75;4905710;28;97056;-44
2023/07/22 01:32:46;;;;;;;3.83;1.70;;;21.70;99.90;;;21.85;49.98;101025.69;4913055;28;97323;-49
2023/07/22 01:35:12;;;;;;;2.53;1.57;;;21.70;99.90;;;21.87;49.91;101023.75;4916863;28;97237;-45
2023/07/22 01:37:38;;;;;;;2.57;1.60;;;21.80;99.90;;;21.88;49.65;101029.00;4910403;28;97292;-44
2023/07/22 01:40:12;;;;;;;2.47;1.40;;;21.80;99.90;;;21.89;49.68;101029.84;4911780;28;100039;-46
2023/07/22 01:42:41;;;;;;;3.13;1.97;;;21.80;99.90;;;21.91;49.61;101022.53;4910601;28;97287;-44
2023/07/22 01:45:08;;;;;;;2.63;1.70;;;21.80;99.90;;;21.92;49.64;101024.22;4903417;28;97629;-43
2023/07/22 01:47:39;;;;;;;2.87;1.90;;;21.80;99.90;;;21.93;49.58;101018.75;4908096;28;96983;-43
2023/07/22 01:50:10;;;;;;;1.97;1.47;;;21.90;99.90;;;21.95;49.66;101018.63;4918040;28;97450;-46
2023/07/22 01:52:35;;;;;;;2.50;1.37;;;21.90;99.90;;;21.96;49.62;101025.69;4922028;28;97168;-44
2023/07/22 01:55:05;;;;;;;2.90;1.97;;;21.90;99.90;;;21.98;49.35;101018.38;4920836;28;96718;-46
2023/07/22 01:57:32;;;;;;;2.83;1.67;;;21.90;99.90;;;21.96;49.56;101009.59;4915540;28;98970;-44
2023/07/22 01:59:57;;;;;;;2.70;1.77;;;21.90;99.90;;;21.98;49.50;101010.31;4907465;28;97495;-44
2023/07/22 02:02:23;;;;;;;2.37;1.70;;;21.90;99.90;;;21.98;49.46;101010.31;4916972;28;106433;-47
2023/07/22 02:04:49;;;;;;;2.60;1.50;;;21.90;99.90;;;21.98;49.37;101010.31;4908646;28;96781;-44
2023/07/22 02:07:15;;;;;;;3.67;1.50;;;21.90;99.90;;;22.00;49.45;101016.44;4917536;28;97601;-56
2023/07/22 02:09:41;;;;;;;1.60;1.40;;;21.90;99.90;;;21.98;49.33;101010.31;4913641;28;121905;-46
2023/07/22 02:12:07;;;;;;;2.73;2.03;;;21.90;99.90;;;21.99;49.37;101014.75;4915878;28;97245;-44
2023/07/22 02:14:33;;;;;;;3.00;1.80;;;21.90;99.90;;;22.01;49.31;101015.47;4912712;28;97318;-43
2023/07/22 02:16:59;;;;;;;2.63;1.90;;;21.90;99.90;;;22.01;49.28;101012.78;4914973;28;97372;-46
2023/07/22 02:19:25;;;;;;;1.93;1.60;;;21.90;99.90;;;22.01;49.02;101018.16;4910011;28;97285;-46
2023/07/22 02:21:51;;;;;;;2.93;1.73;;;21.90;99.90;;;22.01;49.09;101011.94;4905511;28;97520;-43
2023/07/22 02:24:16;;;;;;;1.87;1.53;;;21.90;99.90;;;21.99;49.11;101012.06;4912642;28;116867;-43
2023/07/22 02:26:42;;;;;;;2.70;1.70;;;21.90;99.90;;;21.97;49.27;101016.66;4919391;28;116014;-44
2023/07/22 02:29:08;;;;;;;2.70;1.80;;;21.90;99.90;;;21.97;49.54;101006.78;4910794;28;97585;-44
2023/07/22 02:31:33;;;;;;;3.07;2.10;;;21.90;99.90;;;21.99;49.35;101009.38;4913399;28;97080;-45
2023/07/22 02:34:00;;;;;;;3.47;1.97;;;21.90;99.90;;;21.98;49.37;101004.94;4922912;28;101588;-44
2023/07/22 02:36:26;;;;;;;1.83;1.50;;;21.90;99.90;;;21.97;49.42;100995.19;4923036;28;97874;-44
2023/07/22 02:38:51;;;;;;;2.37;1.83;;;21.80;99.90;;;21.96;49.41;101009.59;4913701;28;97595;-43
2023/07/22 02:41:18;;;;;;;2.80;2.10;;;21.90;99.90;;;21.96;49.25;101014.97;4906904;28;100253;-43
2023/07/22 02:43:43;;;;;;;2.60;1.70;;;21.80;99.90;;;21.94;49.33;101016.91;4912860;28;97187;-44
2023/07/22 02:46:09;;;;;;;2.27;1.53;;;21.80;99.90;;;21.95;49.50;101018.63;4906695;28;107605;-45
2023/07/22 02:48:35;;;;;;;2.40;1.77;;;21.80;99.90;;;21.93;49.36;101021.44;4904877;28;97505;-47
2023/07/22 02:51:09;;;;;;;2.93;1.87;;;21.80;99.90;;;21.94;49.20;101016.91;4918929;28;109191;-46
2023/07/22 02:53:38;;;;;;;2.37;1.47;;;21.80;99.90;;;21.94;49.48;101016.91;4915991;28;97375;-44
2023/07/22 02:56:08;;;;;;;3.33;2.37;;;21.80;99.90;;;21.92;48.10;101021.53;4913009;28;99056;-44
2023/07/22 02:58:35;;;;;;;2.53;1.70;;;21.80;99.90;;;21.93;49.44;101017.88;4910331;28;97956;-48
2023/07/22 03:01:01;;;;;;;2.10;1.63;;;21.80;99.90;;;21.87;49.59;101016.53;4902734;28;97189;-45
2023/07/22 03:03:27;;;;;;;3.03;1.87;;;21.80;99.90;;;21.90;47.62;101020.81;4915218;28;97258;-43
2023/07/22 03:05:53;;;;;;;2.13;1.40;;;21.80;99.90;;;21.88;49.67;101017.41;4898443;28;115746;-48
2023/07/22 03:08:18;;;;;;;3.60;1.83;;;21.80;99.90;;;21.89;49.44;101024.47;4908982;28;97434;-45
2023/07/22 03:10:48;;;;;;;2.43;1.93;;;21.80;99.90;;;21.88;49.00;101017.41;4923567;28;97267;-44
2023/07/22 03:13:17;;;;;;;4.57;2.80;;;21.80;99.90;;;21.80;48.66;101015.28;4902658;28;97087;-47
2023/07/22 03:15:44;;;;;;;5.07;1.60;;;21.60;99.90;;;21.82;49.66;101025.91;4909882;28;101882;-44
2023/07/22 03:18:11;;;;;;;2.33;1.63;;;21.60;99.90;;;21.83;49.54;101024.94;4898993;28;97309;-44
2023/07/22 03:20:38;;;;;;;2.93;1.80;;;21.60;99.90;;;21.85;49.76;101025.69;4915495;28;97461;-47
2023/07/22 03:23:04;;;;;;;3.60;2.03;;;21.70;99.90;;;21.85;49.68;101023.00;4910620;28;97343;-44
2023/07/22 03:25:32;;;;;;;3.03;1.83;;;21.70;99.90;;;21.86;49.46;101019.34;4919058;28;97551;-44
2023/07/22 03:28:01;;;;;;;3.37;2.20;;;21.70;99.90;;;21.87;49.52;101021.06;4910553;28;97627;-44
2023/07/22 03:30:27;;;;;;;2.73;1.93;;;21.80;99.90;;;21.88;49.68;101017.41;4916777;28;97077;-44
2023/07/22 03:32:53;;;;;;;3.27;2.03;;;21.80;99.90;;;21.88;49.58;101022.78;4922245;28;97447;-43
2023/07/22 03:35:19;;;;;;;2.90;2.00;;;21.70;99.90;;;21.89;49.54;101024.47;4919999;28;97608;-43
2023/07/22 03:37:44;;;;;;;3.50;1.83;;;21.80;99.90;;;21.89;49.67;101013.75;4914864;28;97188;-45
2023/07/22 03:40:19;;;;;;;2.43;1.63;;;21.80;99.90;;;21.89;49.48;101014.59;4913003;28;98785;-43
2023/07/22 03:42:49;;;;;;;2.13;1.47;;;21.80;99.90;;;21.91;49.62;101017.16;4922013;28;97335;-43
2023/07/22 03:45:16;;;;;;;3.33;1.80;;;21.80;99.90;;;21.91;49.44;101022.53;4913622;28;102234;-44
2023/07/22 03:47:45;;;;;;;2.47;1.97;;;21.80;99.90;;;21.90;49.46;101021.66;4921078;28;100640;-44
2023/07/22 03:50:11;;;;;;;3.10;1.67;;;21.80;99.90;;;21.91;49.41;101022.53;4920239;28;97228;-43
2023/07/22 03:52:38;;;;;;;3.07;2.10;;;21.80;99.90;;;21.91;49.36;101022.53;4921106;28;97234;-44
2023/07/22 03:55:05;;;;;;;3.43;2.00;;;21.80;99.90;;;21.91;49.56;101022.53;4914997;28;100310;-44
2023/07/22 03:57:31;;;;;;;2.33;1.83;;;21.80;99.90;;;21.92;49.45;101029.59;4919037;28;97365;-44
2023/07/22 03:59:58;;;;;;;3.60;1.80;;;21.80;99.90;;;21.93;49.35;101025.94;4926804;28;97257;-45
2023/07/22 04:02:24;;;;;;;2.77;2.03;;;21.80;99.90;;;21.93;49.51;101025.94;4905955;28;97384;-43
2023/07/22 04:04:53;;;;;;;1.97;1.57;;;21.80;99.90;;;21.94;49.41;101027.66;4905716;28;98131;-44
2023/07/22 04:07:18;;;;;;;2.73;1.87;;;21.80;99.90;;;21.93;49.40;101026.78;4912446;28;97066;-44
2023/07/22 04:09:47;;;;;;;3.33;1.90;;;21.80;99.90;;;21.94;49.46;101028.50;4911468;28;97096;-44
2023/07/22 04:12:13;;;;;;;2.03;1.53;;;21.90;99.90;;;21.95;49.26;101027.53;4916814;28;96948;-45
2023/07/22 04:14:40;;;;;;;2.93;1.90;;;21.90;99.90;;;21.96;48.98;101025.69;4911157;28;97328;-45
2023/07/22 04:17:06;;;;;;;3.37;2.10;;;21.90;99.90;;;21.92;49.48;101029.59;4903897;28;97664;-43
2023/07/22 04:19:32;;;;;;;2.80;1.97;;;21.90;99.90;;;21.95;49.33;101021.31;4915177;28;97342;-44
2023/07/22 04:21:58;;;;;;;2.53;1.90;;;21.90;99.90;;;21.96;49.38;101023.00;4906336;28;97545;-48
2023/07/22 04:24:25;;;;;;;2.03;1.70;;;21.90;99.90;;;21.97;49.43;101027.41;4921388;28;97915;-44
2023/07/22 04:26:51;;;;;;;2.73;1.80;;;21.90;99.90;;;21.94;49.52;101022.28;4913025;28;97248;-44
2023/07/22 04:29:17;;;;;;;3.40;2.00;;;21.90;99.90;;;21.95;49.35;101022.16;4915992;28;97460;-45
2023/07/22 04:31:42;;;;;;;3.83;1.70;;;21.90;99.90;;;21.97;49.23;101022.03;4909662;28;97119;-44
2023/07/22 04:34:09;;;;;;;2.33;1.63;;;21.90;99.90;;;21.97;49.36;101027.41;4920529;28;97966;-46
2023/07/22 04:36:36;;;;;;;3.23;1.83;;;21.90;99.90;;;21.97;49.21;101022.03;4923081;28;97830;-44
2023/07/22 04:39:04;;;;;;;2.93;1.70;;;21.90;99.90;;;21.97;49.25;101025.56;4908807;28;96997;-44
2023/07/22 04:41:31;;;;;;;2.03;1.70;;;21.90;99.90;;;21.97;49.34;101032.78;4913281;28;97127;-46
2023/07/22 04:43:58;;;;;;;2.57;1.73;;;21.90;99.90;;;21.94;49.46;101027.66;4905999;28;97944;-43
2023/07/22 04:46:25;;;;;;;2.40;1.57;;;21.90;99.90;;;21.97;49.31;101030.09;4921436;28;99110;-46
2023/07/22 04:48:55;;;;;;;2.03;1.60;;;21.90;99.90;;;21.97;49.26;101027.41;4912179;28;97463;-44
2023/07/22 04:51:21;;;;;;;2.17;1.50;;;21.90;99.90;;;21.94;49.20;101033.03;4902927;28;97444;-46
2023/07/22 04:53:47;;;;;;;3.30;2.07;;;21.90;99.90;;;21.97;49.45;101030.09;4909629;28;97012;-49
2023/07/22 04:56:13;;;;;;;3.30;2.00;;;21.90;99.90;;;21.97;49.30;101030.09;4912045;28;106767;-43
2023/07/22 04:58:39;;;;;;;2.20;1.53;;;21.90;99.90;;;21.96;49.28;101026.56;4906165;28;97196;-44
2023/07/22 05:01:05;;;;;;;3.60;1.70;;;21.90;99.90;;;21.97;49.23;101027.41;4916833;28;97204;-44
2023/07/22 05:03:30;;;;;;;2.90;1.90;;;21.90;99.90;;;21.96;49.26;101031.06;4912215;28;97599;-46
2023/07/22 05:05:57;;;;;;;2.53;1.73;;;21.90;99.90;;;21.97;49.07;101022.03;4904718;28;99350;-46
2023/07/22 05:08:23;;;;;;;3.10;1.90;;;21.90;99.90;;;21.96;49.33;101025.69;4900250;28;105926;-43
2023/07/22 05:10:49;;;;;;;2.03;1.70;;;21.90;99.90;;;21.97;49.28;101030.94;4917182;28;97112;-44
2023/07/22 05:13:16;;;;;;;2.83;2.03;;;21.90;99.90;;;21.98;49.35;101023.75;4914507;28;105054;-43
2023/07/22 05:15:42;;;;;;;2.17;1.60;;;21.90;99.90;;;21.96;49.27;101025.69;4916018;28;101366;-44
2023/07/22 05:18:07;;;;;;;2.40;1.60;;;21.90;99.90;;;21.98;49.37;101029.13;4912277;28;97024;-44
2023/07/22 05:20:33;;;;;;;3.33;1.70;;;21.90;99.90;;;21.96;49.09;101031.06;4911146;28;97504;-45
2023/07/22 05:22:59;;;;;;;3.17;2.13;;;21.80;99.90;;;21.92;49.19;101029.59;4906988;28;100764;-45
2023/07/22 05:25:25;;;;;;;2.87;2.03;;;21.80;99.90;;;21.89;48.91;101029.84;4902496;28;98428;-44
2023/07/22 05:27:51;;;;;;;3.30;2.20;;;21.70;99.90;;;21.80;48.00;101022.50;4913328;28;97246;-44
2023/07/22 05:30:16;;;;;;;4.80;2.93;;;21.60;99.90;;;21.60;47.84;101022.19;4905305;28;108833;-51
2023/07/22 05:32:42;;;;;;;6.03;2.97;;;21.30;99.90;;;21.44;46.53;101029.69;4909546;28;97352;-45
2023/07/22 05:35:08;;;;;;;3.07;1.90;;;21.10;99.90;;;21.28;50.75;101023.78;4913932;28;97504;-45
2023/07/22 05:37:34;;;;;;;8.43;3.33;;;20.80;99.90;;;21.22;47.49;101029.53;4912278;28;97295;-44
2023/07/22 05:40:01;;;;;;;4.50;3.00;;;20.80;99.90;;;21.09;48.66;101030.44;4902627;28;97522;-45
2023/07/22 05:42:28;;;;;;;2.97;1.83;;;20.60;99.90;;;21.09;51.46;101030.44;4911345;28;98169;-46
2023/07/22 05:44:55;;;;;;;5.63;2.70;;;20.60;99.90;;;20.88;48.04;101032.03;4891744;28;97892;-44
2023/07/22 05:47:22;;;;;;;1.90;1.63;;;20.50;99.90;;;20.85;51.86;101034.09;4908253;28;96884;-43
2023/07/22 05:49:47;;;;;;;4.53;2.67;;;20.40;99.90;;;20.86;49.42;101035.78;4919177;28;97409;-44
2023/07/22 05:52:13;;;;;;;4.47;1.70;;;20.50;99.90;;;20.99;51.96;101034.78;4894443;28;108890;-44
2023/07/22 05:54:39;;;;;;;3.70;2.10;;;20.70;99.90;;;21.13;51.68;101044.50;4913699;28;103304;-47
2023/07/22 05:57:05;;;;;;;3.27;2.07;;;20.90;99.90;;;21.23;51.60;101037.47;4904577;28;99982;-46
2023/07/22 05:59:31;;;;;;;2.53;1.53;;;21.00;99.90;;;21.30;51.28;101032.56;4922904;28;97062;-47
2023/07/22 06:01:57;;;;;;;3.17;1.70;;;21.10;99.90;;;21.39;50.86;101031.84;4911768;28;108787;-45
2023/07/22 06:04:23;;;;;;;3.60;1.93;;;21.30;99.90;;;21.45;50.84;101039.47;4909401;28;109906;-44
2023/07/22 06:06:49;;;;;;;2.23;1.70;;;21.40;99.90;;;21.50;50.73;101034.59;4924485;28;97312;-46
2023/07/22 06:09:14;;;;;;;2.67;1.63;;;21.40;99.90;;;21.56;50.49;101031.47;4906856;28;104416;-43
2023/07/22 06:11:40;;;;;;;2.17;1.50;;;21.50;99.90;;;21.57;50.42;101035.84;4915757;28;104544;-46
2023/07/22 06:14:06;;;;;;;5.23;3.13;;;21.50;99.90;;;21.54;47.53;101035.22;4916702;28;103584;-44
2023/07/22 06:16:32;;;;;;;5.57;3.33;;;21.40;99.90;;;21.47;46.96;101039.34;4912623;28;97207;-47
2023/07/22 06:18:58;;;;;;;2.70;1.80;;;21.30;99.90;;;21.48;50.59;101044.59;4913126;28;98740;-45
2023/07/22 06:21:24;;;;;;;3.97;1.93;;;21.20;99.90;;;21.52;50.55;101032.63;4914885;28;105198;-46
2023/07/22 06:23:50;;;;;;;3.13;1.70;;;21.30;99.90;;;21.58;50.40;101031.34;4918937;28;114181;-44
2023/07/22 06:26:16;;;;;;;5.60;2.90;;;21.40;99.90;;;21.60;48.06;101030.25;4916247;28;97133;-45
2023/07/22 06:28:42;;;;;;;2.03;1.30;;;21.50;99.90;;;21.60;50.41;101030.25;4947537;22;97351;-45
2023/07/22 06:31:09;;;;;;;2.23;1.63;;;21.50;99.90;;;21.67;50.13;101030.63;4951159;28;97145;-43
2023/07/22 06:33:35;;;;;;;2.37;1.40;;;21.60;99.90;;;21.68;50.23;101033.19;4937882;28;111340;-43
2023/07/22 06:36:02;;;;;;;2.57;1.60;;;21.60;99.90;;;21.71;50.15;101042.84;4934021;28;97152;-46
2023/07/22 06:38:27;;;;;;;2.93;1.70;;;21.60;99.90;;;21.74;49.62;101039.94;4938509;28;97162;-46
2023/07/22 06:40:53;;;;;;;5.33;3.03;;;21.70;99.90;;;21.63;46.32;101043.44;4934880;28;97624;-46
2023/07/22 06:43:19;;;;;;;6.27;3.03;;;21.50;99.90;;;21.55;48.39;101037.78;4934805;28;97400;-44
2023/07/22 06:45:45;;;;;;;3.53;1.87;;;21.30;99.90;;;21.49;50.47;101032.88;4933643;28;97248;-44
2023/07/22 06:48:11;;;;;;;6.13;2.87;;;21.30;99.90;;;21.51;46.72;101030.06;4935670;28;98969;-43
2023/07/22 06:50:36;;;;;;;2.67;2.07;;;21.40;99.90;;;21.59;50.27;101036.59;4937106;28;102058;-45
2023/07/22 06:53:03;;;;;;;5.87;3.27;;;21.40;99.90;;;21.54;46.53;101041.44;4940398;28;97512;-43
2023/07/22 06:55:29;;;;;;;4.10;2.10;;;21.40;99.90;;;21.48;50.18;101044.59;4935363;28;96967;-43
2023/07/22 06:57:59;;;;;;;4.83;2.77;;;21.20;99.90;;;21.41;46.53;101040.66;4942957;28;98937;-47
2023/07/22 07:00:25;;;;;;;6.33;3.17;;;21.10;99.90;;;21.33;46.43;101040.38;4936684;28;97126;-43
2023/07/22 07:02:51;;;;;;;7.50;3.33;;;21.00;99.90;;;21.17;46.13;101037.09;4937204;28;103692;-43
2023/07/22 07:05:17;;;;;;;3.33;2.03;;;20.80;99.90;;;21.24;48.35;101039.19;4937410;28;97315;-46
2023/07/22 07:07:43;;;;;;;5.17;2.83;;;20.90;99.90;;;21.17;45.84;101042.44;4938430;28;97560;-44
2023/07/22 07:10:09;;;;;;;5.23;2.80;;;20.80;99.90;;;21.06;44.56;101041.41;4930727;28;96999;-44
2023/07/22 07:12:35;;;;;;;4.70;2.90;;;20.80;99.90;;;21.14;45.87;101042.69;4926133;28;97378;-43
2023/07/22 07:15:01;;;;;;;3.60;2.40;;;20.80;99.90;;;21.15;49.78;101039.03;4929647;28;96764;-44
2023/07/22 07:17:27;;;;;;;4.13;2.87;;;20.80;99.90;;;21.08;44.35;101039.47;4938000;28;97189;-45
2023/07/22 07:19:53;;;;;;;4.80;2.83;;;20.80;99.90;;;21.06;49.01;101045.91;4933040;28;97503;-44
2023/07/22 07:22:18;;;;;;;4.77;2.77;;;20.80;99.90;;;21.02;44.56;101034.56;4933804;28;96990;-44
2023/07/22 07:24:44;;;;;;;5.30;2.97;;;20.70;99.90;;;21.03;45.26;101030.91;4943597;28;97472;-44
2023/07/22 07:27:10;;;;;;;5.70;2.53;;;20.80;99.90;;;21.06;44.67;101036.03;4938503;28;104682;-43
2023/07/22 07:29:35;;;;;;;5.07;2.93;;;20.80;99.90;;;21.15;45.69;101039.03;4936136;28;109542;-46
2023/07/22 07:32:01;;;;;;;3.80;2.73;;;20.90;99.90;;;21.05;43.48;101034.34;4937495;28;117788;-45
2023/07/22 07:34:27;;;;;;;5.60;1.90;;;20.80;99.90;;;21.02;49.64;101033.72;4943033;28;97362;-44
2023/07/22 07:36:53;;;;;;;3.23;2.40;;;20.70;99.90;;;21.06;48.85;101037.88;4935012;28;97372;-43
2023/07/22 07:39:19;;;;;;;4.90;2.00;;;20.80;99.90;;;20.98;49.15;101037.59;4932558;28;112687;-45
2023/07/22 07:41:44;;;;;;;4.50;2.73;;;20.70;99.90;;;21.00;44.50;101041.00;4939606;28;100071;-44
2023/07/22 07:44:10;;;;;;;6.03;3.50;;;20.70;99.90;;;21.00;44.25;101035.66;4935193;28;108571;-43
2023/07/22 07:46:36;;;;;;;5.83;2.63;;;20.70;99.90;;;20.99;43.45;101039.31;4937327;28;97387;-44
2023/07/22 07:49:02;;;;;;;5.93;3.07;;;20.80;99.90;;;21.03;43.72;101041.63;4938307;28;98090;-43
2023/07/22 07:51:30;;;;;;;4.40;2.60;;;20.80;99.90;;;21.14;46.22;101043.53;4930944;28;97523;-44
2023/07/22 07:54:00;;;;;;;4.20;2.60;;;20.90;99.90;;;21.26;50.85;101039.09;4939271;28;97167;-46
2023/07/22 07:56:26;;;;;;;4.97;2.87;;;21.00;99.90;;;21.30;48.26;101037.91;4937991;28;96881;-47
2023/07/22 07:58:54;;;;;;;5.87;3.17;;;21.10;99.90;;;21.29;44.62;101044.25;4939926;28;97516;-44
2023/07/22 08:01:20;;;;;;;3.83;2.77;;;21.10;99.90;;;21.36;50.05;101042.81;4930941;28;97312;-45
2023/07/22 08:03:46;;;;;;;5.43;2.70;;;21.10;99.90;;;21.39;44.46;101047.94;4942383;28;97044;-44
2023/07/22 08:06:13;;;;;;;5.63;3.13;;;21.20;99.90;;;21.37;43.74;101039.16;4932807;28;98932;-44
2023/07/22 08:08:39;;;;;;;7.17;3.07;;;21.20;99.90;;;21.48;49.19;101041.91;4932845;28;97852;-47
2023/07/22 08:11:13;;;;;;;6.07;3.23;;;21.30;99.90;;;21.49;49.61;101043.63;4935349;28;108167;-44
2023/07/22 08:13:40;;;;;;;4.37;2.90;;;21.30;99.90;;;21.45;43.43;101036.78;4930186;28;99261;-43
2023/07/22 08:16:09;;;;;;;6.63;3.37;;;21.30;99.90;;;21.47;43.77;101037.50;4929201;28;97351;-45
2023/07/22 08:18:36;;;;;;;3.83;2.90;;;21.30;99.90;;;21.54;44.78;101040.56;4939906;28;97946;-43
2023/07/22 08:21:04;;;;;;;3.80;2.60;;;21.30;99.90;;;21.52;43.85;101034.47;4937924;28;97467;-43
2023/07/22 08:23:30;;;;;;;5.17;2.53;;;21.30;99.90;;;21.55;46.81;101040.44;4922611;28;98026;-45
2023/07/22 08:25:56;;;;;;;2.67;2.30;;;21.40;99.90;;;21.49;47.50;101027.50;4916234;28;97224;-48
2023/07/22 08:28:22;;;;;;;5.03;2.80;;;21.30;99.90;;;21.55;44.93;101032.41;4914191;28;99934;-44
2023/07/22 08:30:48;;;;;;;5.17;2.70;;;21.30;99.90;;;21.54;46.37;101036.06;4915901;28;97429;-44
2023/07/22 08:33:16;;;;;;;5.17;2.73;;;21.30;99.90;;;21.58;44.61;101026.81;4916827;28;96971;-48
2023/07/22 08:35:42;;;;;;;7.20;2.60;;;21.40;99.90;;;21.51;48.13;101030.94;4914989;28;97560;-47
2023/07/22 08:38:10;;;;;;;3.53;2.87;;;21.30;99.90;;;21.56;45.87;101028.78;4915455;28;97434;-46
2023/07/22 08:40:38;;;;;;;8.43;2.70;;;21.30;99.90;;;21.55;42.73;101032.41;4919879;28;98252;-44
2023/07/22 08:43:06;;;;;;;3.93;2.20;;;21.40;99.90;;;21.55;44.79;101021.66;4915810;28;97530;-45
2023/07/22 08:45:36;;;;;;;4.63;2.53;;;21.40;99.90;;;21.59;42.45;101028.53;4928668;28;97066;-43
2023/07/22 08:48:07;;;;;;;5.60;2.60;;;21.40;99.90;;;21.60;43.41;101027.56;4916977;28;98607;-43
2023/07/22 08:50:55;;;;;;;4.20;2.20;;;21.50;99.90;;;21.59;45.78;101027.69;4915801;28;97348;-46
2023/07/22 08:53:25;;;;;;;5.10;2.33;;;21.50;99.90;;;21.59;41.77;101025.84;4911042;28;97395;-45
2023/07/22 08:55:51;;;;;;;5.73;2.30;;;21.50;99.60;;;21.67;45.22;101030.63;4914343;28;98366;-44
2023/07/22 08:58:17;;;;;;;4.17;1.97;;;21.50;99.90;;;21.69;43.61;101029.53;4915335;28;97062;-46
2023/07/22 09:00:43;;;;;;;4.07;2.27;;;21.60;99.90;;;21.71;45.81;101031.28;4917295;28;99721;-46
2023/07/22 09:03:11;;;;;;;3.13;2.23;;;21.60;99.90;;;21.76;45.04;101024.56;4915110;28;97151;-43
2023/07/22 09:05:38;;;;;;;4.20;2.20;;;21.70;99.90;;;21.77;41.77;101030.78;4916352;28;97687;-45
2023/07/22 09:08:07;;;;;;;3.57;2.40;;;21.70;99.50;;;21.79;42.01;101028.84;4916057;28;99793;-46
2023/07/22 09:10:33;;;;;;;4.13;2.37;;;21.70;99.20;;;21.80;45.78;101020.66;4913288;28;98105;-44
2023/07/22 09:13:04;;;;;;;4.60;2.20;;;21.70;99.90;;;21.80;43.52;101019.81;4914213;28;97503;-44
2023/07/22 09:15:35;;;;;;;4.40;2.70;;;21.70;99.90;;;21.84;41.73;101015.91;4903055;28;99278;-45
2023/07/22 09:18:00;;;;;;;3.20;2.23;;;21.70;99.00;;;21.89;43.27;101014.59;4913805;28;97338;-48
2023/07/22 09:20:28;;;;;;;3.43;1.97;;;21.80;99.70;;;21.94;41.12;101006.16;4915291;28;97387;-45
2023/07/22 09:22:54;;;;;;;2.67;2.03;;;21.80;98.60;;;21.94;39.98;101017.75;4914586;28;98511;-48
2023/07/22 09:25:27;;;;;;;3.17;1.97;;;21.90;97.60;;;22.00;39.66;101010.22;4912593;28;96957;-46
2023/07/22 09:28:01;;;;;;;3.47;1.93;;;21.90;97.30;;;22.01;41.89;101020.84;4914073;28;99316;-44
2023/07/22 09:30:29;;;;;;;4.03;2.00;;;22.00;99.80;;;22.01;39.34;101015.47;4917379;28;99095;-43
2023/07/22 09:33:01;;;;;;;5.80;1.87;;;22.00;96.90;;;22.07;41.43;101012.34;4914576;28;97571;-45
2023/07/22 09:35:44;;;;;;;3.03;1.57;;;22.00;98.60;;;22.05;38.61;101008.03;4915048;28;97402;-45
2023/07/22 09:38:10;;;;;;;3.07;1.93;;;22.00;96.30;;;22.06;42.64;101016.00;4916234;28;97531;-45
2023/07/22 09:40:35;;;;;;;2.77;1.70;;;22.00;97.90;;;22.03;38.85;101016.22;4914263;28;97400;-45
2023/07/22 09:43:02;;;;;;;2.13;1.40;;;22.00;96.50;;;22.06;38.66;101021.38;4910246;28;103953;-44
2023/07/22 09:45:31;;;;;;;2.37;1.40;;;22.00;95.70;;;22.01;40.93;101020.84;4913105;28;97012;-45
2023/07/22 09:47:58;;;;;;;3.13;2.13;;;22.00;96.90;;;22.03;41.83;101016.22;4912920;28;97618;-44
2023/07/22 09:50:25;;;;;;;3.83;1.47;;;22.00;97.80;;;22.04;44.41;101009.84;4912232;28;97980;-46
2023/07/22 09:52:59;;;;;;;4.40;2.53;;;22.00;99.40;;;22.07;38.16;101006.09;4914233;28;98078;-43
2023/07/22 09:55:30;;;;;;;3.30;1.90;;;22.00;95.30;;;22.08;40.76;101008.66;4914473;28;97307;-45
2023/07/22 09:58:02;;;;;;;3.43;2.00;;;22.00;96.70;;;22.10;39.77;101006.72;4910769;28;99118;-47
2023/07/22 10:00:34;;;;;;;4.87;2.33;;;22.10;96.80;;;22.10;39.54;101009.41;4927418;28;98912;-43
2023/07/22 10:03:04;;;;;;;2.23;1.50;;;22.10;96.40;;;22.14;39.84;101002.81;4914165;28;97649;-43
2023/07/22 10:05:34;;;;;;;3.13;1.70;;;22.10;96.90;;;22.18;41.41;101008.81;4912749;28;97434;-46
2023/07/22 10:08:02;;;;;;;2.37;1.40;;;22.20;97.30;;;22.17;41.79;101002.59;4913701;28;97397;-45
2023/07/22 10:10:35;;;;;;;3.40;1.50;;;22.10;97.70;;;22.22;41.52;101000.38;4914725;28;97547;-46